X  SluitMETAR luchtvaart weer gegevens      EBBR Brussels Airport

Temperatuur

15°C Temperatuur

9°C Dauwpunt

68% Vochtigheid



Wind

 2 KM/U

 1 MPH

 0 M/S

 1 KTS



Kalm
Pal Noord
Huidig weer

Helder Helder
Luchtdruk 1016.92 (hPa) - 30.03 (in)
Zicht 6.2 (mi) - 10 (km)
Vliegveld
Vliegveld code EBBR

Locatie Brussels Airport 14 (km)

Metar:
EBBR 042220Z VRB01KT CAVOK 15/09 Q1017 NOSIG

Tijd: 05-08-2020 00:20